SCSE/LSC METAR and TAF weather

Enter ICAO airport designator
Station Type Date Time Source
SCSE METAR 2022/10/01 08:00 UTC NOAA

SCSE 010800Z AUTO VRB02KT 9999 OVC007/// 12/11 Q1015


Station Type Date Time Source
SCSE Decoded METAR 2022/10/01 08:00 UTC NOAA

La Serena, Chile (SCSE) 29-54S 071-12W
Oct 01, 2022 - 04:00 AM EDT / 2022.10.01 0800 UTC
Wind: Variable at 2 MPH (2 KT):0
Visibility: greater than 7 mile(s):0
Sky conditions: overcast
Temperature: 53 F (12 C)
Dew Point: 51 F (11 C)
Relative Humidity: 93%
Pressure (altimeter): 29.97 in. Hg (1015 hPa)
ob: SCSE 010800Z AUTO VRB02KT 9999 OVC007/// 12/11 Q1015
cycle: 8

Station Type Date Time Source
SCSE TAF 2022/10/01 06:03 UTC NOAA

TAF TAF SCSE 010400Z 0106/0206 30004KT 9999 BKN008 TX16/0119Z TN10/0110Z
TEMPO 0108/0112 5000 BR SCT005 OVC008
BECMG 0114/0116 SCT012 SCT020
BECMG 0116/0118 30010KT FEW020
BECMG 0201/0203 01004KT

Example: see airport list